Time;durP1;ratioP1;P1;durP2;ratioP2;P2;SDS_P1;SDS_P2;PMS_P1;PMS_P2;Temp;Humidity;BMP_temperature;BMP_pressure;BME280_temperature;BME280_humidity;BME280_pressure;Samples;Min_cycle;Max_cycle;Signal;HPM_P1;HPM_P2
2022/01/28 00:00:51;;;;;;;7.57;2.93;;;;;;;1.30;100.00;96604.53;10500257;28;20717;-63
2022/01/28 00:05:51;;;;;;;5.00;2.10;;;;;;;1.34;100.00;96593.06;10500332;28;20240;-64
2022/01/28 00:10:52;;;;;;;4.77;2.27;;;;;;;1.21;100.00;96610.28;10500152;28;20283;-64
2022/01/28 00:37:09;;;;;;;3.83;1.77;;;;;;;0.94;100.00;96660.19;10481188;28;20213;-62
2022/01/28 00:42:09;;;;;;;4.53;1.93;;;;;;;0.81;100.00;96656.72;10498452;28;20579;-61
2022/01/28 00:47:09;;;;;;;3.93;1.40;;;;;;;0.83;100.00;96655.72;10499003;28;20195;-63
2022/01/28 00:52:10;;;;;;;5.10;1.57;;;;;;;0.88;100.00;96663.16;10498090;28;20242;-64
2022/01/28 00:57:10;;;;;;;7.33;1.70;;;;;;;0.97;100.00;96678.03;10498385;28;20199;-64
2022/01/28 01:02:10;;;;;;;5.93;2.07;;;;;;;0.95;100.00;96664.44;10498197;28;20280;-64
2022/01/28 01:07:11;;;;;;;4.17;1.83;;;;;;;1.04;100.00;96687.06;10497707;28;20195;-64
2022/01/28 01:12:12;;;;;;;14.50;2.20;;;;;;;1.15;100.00;96724.22;10497963;28;20275;-63
2022/01/28 01:22:13;;;;;;;4.67;2.13;;;;;;;1.12;100.00;96729.56;10497041;28;20234;-63
2022/01/28 01:27:14;;;;;;;6.83;1.73;;;;;;;1.09;100.00;96740.94;10497123;28;20219;-64
2022/01/28 01:32:17;;;;;;;5.03;1.33;;;;;;;1.10;100.00;96727.09;10496723;28;20206;-63
2022/01/28 01:37:17;;;;;;;7.87;1.30;;;;;;;1.19;100.00;96743.75;10496837;28;20619;-61
2022/01/28 01:42:32;;;;;;;5.83;1.73;;;;;;;1.20;100.00;96725.59;10495458;28;20230;-64
2022/01/28 01:53:05;;;;;;;2.87;1.10;;;;;;;1.12;100.00;96763.97;10461402;28;20269;-63
2022/01/28 01:58:05;;;;;;;4.27;1.60;;;;;;;1.12;100.00;96761.38;10496051;28;20282;-63
2022/01/28 02:03:06;;;;;;;5.13;1.50;;;;;;;1.15;100.00;96755.19;10495420;28;20226;-59
2022/01/28 02:08:06;;;;;;;5.57;1.60;;;;;;;1.02;100.00;96758.53;10495224;28;20195;-62
2022/01/28 02:13:07;;;;;;;8.60;1.20;;;;;;;1.01;100.00;96764.63;10495435;28;20211;-62
2022/01/28 02:18:07;;;;;;;7.80;1.80;;;;;;;0.89;100.00;96768.78;10494970;28;20248;-61
2022/01/28 02:23:08;;;;;;;4.50;1.40;;;;;;;1.00;100.00;96768.13;10494918;28;20219;-62
2022/01/28 02:28:10;;;;;;;2.50;1.40;;;;;;;0.86;100.00;96774.16;10494901;28;20187;-61
2022/01/28 02:33:14;;;;;;;6.20;1.50;;;;;;;0.87;100.00;96768.06;10494423;28;20221;-62
2022/01/28 02:38:18;;;;;;;4.50;1.50;;;;;;;0.89;100.00;96783.44;10494808;28;20187;-62
2022/01/28 02:48:26;;;;;;;6.23;1.40;;;;;;;0.90;100.00;96797.97;10493979;28;20195;-61
2022/01/28 02:53:36;;;;;;;4.50;1.40;;;;;;;0.91;100.00;96796.25;10493736;28;20258;-64
2022/01/28 02:58:36;;;;;;;5.53;1.50;;;;;;;0.80;100.00;96790.00;10494292;28;20190;-63
2022/01/28 03:03:37;;;;;;;5.67;1.53;;;;;;;0.88;100.00;96802.41;10493812;28;20230;-64
2022/01/28 03:08:37;;;;;;;4.70;1.30;;;;;;;0.86;100.00;96807.66;10494083;28;20244;-64
2022/01/28 03:19:16;;;;;;;4.73;1.50;;;;;;;0.59;100.00;96807.59;10493991;28;20199;-64
2022/01/28 03:24:16;;;;;;;6.77;1.90;;;;;;;0.64;100.00;96813.28;10493797;28;20312;-64
2022/01/28 03:29:17;;;;;;;4.63;1.80;;;;;;;0.72;100.00;96841.22;10493399;28;20289;-64
2022/01/28 03:34:17;;;;;;;12.23;1.87;;;;;;;0.82;100.00;96851.78;10493420;28;20203;-65
2022/01/28 03:39:18;;;;;;;11.20;1.77;;;;;;;0.89;100.00;96845.34;10493347;28;20694;-65
2022/01/28 03:44:18;;;;;;;7.83;2.33;;;;;;;0.83;100.00;96850.88;10493020;28;20272;-66
2022/01/28 03:49:19;;;;;;;12.87;1.90;;;;;;;0.80;100.00;96851.06;10493187;28;20228;-66
2022/01/28 03:54:19;;;;;;;7.70;1.67;;;;;;;0.73;100.00;96848.00;10492305;28;20231;-64
2022/01/28 03:59:19;;;;;;;7.37;1.90;;;;;;;0.81;100.00;96852.69;10492746;28;20248;-65
2022/01/28 04:20:07;;;;;;;4.90;1.30;;;;;;;0.93;100.00;96869.19;10499118;28;20221;-65
2022/01/28 04:25:07;;;;;;;11.53;1.60;;;;;;;0.89;100.00;96878.88;10499570;28;20214;-63
2022/01/28 04:30:08;;;;;;;8.97;1.57;;;;;;;0.84;100.00;96880.88;10499291;28;20198;-63
2022/01/28 04:35:08;;;;;;;7.57;1.67;;;;;;;0.75;100.00;96891.75;10499329;28;20207;-64
2022/01/28 04:40:18;;;;;;;6.73;1.60;;;;;;;0.68;100.00;96893.88;10499025;28;20712;-65
2022/01/28 04:45:27;;;;;;;5.60;1.43;;;;;;;0.67;100.00;96880.16;10498958;28;20215;-64
2022/01/28 05:27:00;;;;;;;7.10;1.50;;;;;;;0.64;100.00;96955.06;10478945;28;20199;-64
2022/01/28 05:32:01;;;;;;;10.17;2.10;;;;;;;0.53;100.00;96957.47;10496073;28;20716;-62
2022/01/28 05:37:02;;;;;;;6.43;1.77;;;;;;;0.49;100.00;96961.13;10494464;28;20277;-62
2022/01/28 05:42:04;;;;;;;7.67;1.80;;;;;;;0.47;100.00;96953.47;10496289;28;20226;-64
2022/01/28 05:47:04;;;;;;;7.03;1.50;;;;;;;0.55;100.00;96976.22;10496377;28;20198;-65
2022/01/28 05:52:05;;;;;;;7.93;1.70;;;;;;;0.38;100.00;96973.81;10495729;28;20237;-65
2022/01/28 05:57:05;;;;;;;8.47;2.23;;;;;;;0.25;100.00;96974.50;10495989;28;20198;-65
2022/01/28 06:02:05;;;;;;;10.83;3.33;;;;;;;0.14;100.00;96987.97;10495950;28;20257;-65
2022/01/28 06:07:06;;;;;;;12.70;2.47;;;;;;;0.13;100.00;96998.38;10495545;28;20642;-67
2022/01/28 06:12:07;;;;;;;13.57;2.30;;;;;;;0.04;100.00;97009.16;10495304;28;20237;-66
2022/01/28 06:17:07;;;;;;;14.47;2.50;;;;;;;-0.10;100.00;97015.91;10495127;28;20195;-65
2022/01/28 06:22:07;;;;;;;10.40;2.30;;;;;;;-0.13;100.00;97005.75;10494816;28;20218;-66
2022/01/28 06:27:08;;;;;;;12.33;2.50;;;;;;;-0.14;100.00;97019.53;10494649;28;20194;-66
2022/01/28 06:32:11;;;;;;;9.30;2.40;;;;;;;-0.01;100.00;97027.44;10494504;28;20244;-67
2022/01/28 06:37:11;;;;;;;16.60;2.90;;;;;;;0.04;100.00;97034.94;10494606;28;20199;-66
2022/01/28 06:42:12;;;;;;;13.40;2.77;;;;;;;0.12;100.00;97053.38;10494249;28;20225;-66
2022/01/28 06:47:13;;;;;;;7.37;2.40;;;;;;;0.13;100.00;97063.59;10494368;28;20203;-66
2022/01/28 06:52:13;;;;;;;9.13;2.30;;;;;;;0.16;100.00;97078.06;10493503;28;20598;-66
2022/01/28 06:57:14;;;;;;;15.30;2.60;;;;;;;0.26;100.00;97078.38;10493840;28;20614;-65
2022/01/28 07:02:14;;;;;;;13.17;3.20;;;;;;;0.22;100.00;97095.75;10493904;28;20710;-66
2022/01/28 07:07:14;;;;;;;14.10;2.73;;;;;;;0.24;100.00;97093.91;10493835;28;20223;-66
2022/01/28 07:12:15;;;;;;;10.73;2.30;;;;;;;0.25;100.00;97100.75;10493197;28;20232;-65
2022/01/28 07:17:16;;;;;;;12.80;2.90;;;;;;;0.40;100.00;97118.84;10493707;28;20187;-65
2022/01/28 07:22:17;;;;;;;13.37;3.00;;;;;;;0.45;100.00;97122.84;10493491;28;20300;-65
2022/01/28 07:27:19;;;;;;;8.33;2.03;;;;;;;0.47;100.00;97125.34;10493331;28;20224;-64
2022/01/28 07:32:22;;;;;;;10.87;2.07;;;;;;;0.51;100.00;97147.47;10491672;28;20286;-64
2022/01/28 07:37:23;;;;;;;16.53;2.50;;;;;;;0.60;100.00;97148.69;10491275;28;20270;-65
2022/01/28 07:42:25;;;;;;;15.27;2.63;;;;;;;0.50;100.00;97153.53;10499409;28;20230;-64
2022/01/28 07:47:25;;;;;;;9.97;2.00;;;;;;;0.57;100.00;97165.19;10501154;28;20586;-64
2022/01/28 07:52:26;;;;;;;12.67;2.33;;;;;;;0.47;100.00;97149.34;10499994;28;20317;-65
2022/01/28 07:57:26;;;;;;;11.97;2.20;;;;;;;0.31;100.00;97159.69;10500599;28;20195;-64
2022/01/28 08:02:27;;;;;;;8.10;2.50;;;;;;;0.37;100.00;97186.03;10492625;28;20245;-64
2022/01/28 08:07:28;;;;;;;10.70;2.60;;;;;;;0.42;100.00;97192.59;10498205;28;20203;-65
2022/01/28 08:12:28;;;;;;;12.20;2.53;;;;;;;0.39;100.00;97189.38;10498460;28;20211;-64
2022/01/28 08:17:28;;;;;;;9.60;2.27;;;;;;;0.37;100.00;97194.59;10498239;28;20266;-64
2022/01/28 08:22:30;;;;;;;14.70;2.83;;;;;;;0.27;100.00;97204.53;10497907;28;20218;-64
2022/01/28 08:27:30;;;;;;;14.27;3.10;;;;;;;0.28;100.00;97211.38;10498137;28;20878;-65
2022/01/28 08:32:30;;;;;;;18.90;3.50;;;;;;;0.31;100.00;97218.13;10497776;28;20215;-64
2022/01/28 08:37:31;;;;;;;22.00;3.30;;;;;;;0.35;100.00;97224.75;10495774;28;20215;-65
2022/01/28 08:42:31;;;;;;;16.10;2.80;;;;;;;0.43;100.00;97237.25;10492367;28;20219;-64
2022/01/28 08:47:32;;;;;;;13.30;2.57;;;;;;;0.47;100.00;97247.31;10497320;28;20190;-65
2022/01/28 08:52:32;;;;;;;11.27;2.53;;;;;;;0.59;100.00;97263.88;10496099;28;20301;-64
2022/01/28 08:57:32;;;;;;;15.10;2.43;;;;;;;0.65;100.00;97266.13;10496651;28;20209;-64
2022/01/28 09:02:33;;;;;;;15.13;3.03;;;;;;;0.57;100.00;97270.03;10493824;28;20226;-64
2022/01/28 09:07:33;;;;;;;11.23;2.90;;;;;;;0.55;100.00;97287.31;10494818;28;20197;-64
2022/01/28 09:12:46;;;;;;;13.60;4.00;;;;;;;0.65;100.00;97284.19;10494961;28;20218;-64
2022/01/28 09:17:47;;;;;;;17.60;3.20;;;;;;;0.70;100.00;97284.78;10493627;28;20314;-64
2022/01/28 09:22:47;;;;;;;14.43;2.97;;;;;;;0.63;100.00;97306.66;10494455;28;20591;-64
2022/01/28 09:27:47;;;;;;;17.27;3.33;;;;;;;0.69;100.00;97308.09;10492274;28;20605;-63
2022/01/28 09:32:48;;;;;;;23.97;5.17;;;;;;;0.66;100.00;97306.47;10492500;28;20207;-64
2022/01/28 09:37:49;;;;;;;19.07;3.90;;;;;;;0.74;100.00;97307.84;10494493;28;20289;-63
2022/01/28 09:42:52;;;;;;;10.30;2.30;;;;;;;0.75;100.00;97323.22;10492966;28;20842;-61
2022/01/28 09:47:56;;;;;;;16.00;2.67;;;;;;;0.79;100.00;97327.28;10495057;28;20692;-63
2022/01/28 09:52:57;;;;;;;14.53;2.80;;;;;;;0.84;100.00;97329.63;10494056;28;20294;-61
2022/01/28 09:58:02;;;;;;;15.27;2.87;;;;;;;0.74;100.00;97346.53;10494438;28;20195;-62
2022/01/28 10:03:08;;;;;;;13.77;3.13;;;;;;;0.76;100.00;97349.84;10493683;28;20234;-63
2022/01/28 10:08:14;;;;;;;16.47;2.93;;;;;;;0.75;100.00;97350.75;10494202;28;20230;-62
2022/01/28 10:13:17;;;;;;;15.60;2.47;;;;;;;0.82;100.00;97365.00;10492235;28;20708;-63
2022/01/28 10:18:17;;;;;;;19.20;3.53;;;;;;;0.89;100.00;97386.97;10493842;28;20224;-61
2022/01/28 10:23:19;;;;;;;18.43;2.70;;;;;;;0.82;100.00;97380.47;10493281;28;20933;-62
2022/01/28 10:28:19;;;;;;;16.83;2.93;;;;;;;0.70;100.00;97399.97;10493234;28;20696;-64
2022/01/28 10:33:23;;;;;;;11.67;3.60;;;;;;;0.73;100.00;97404.97;10493806;28;20218;-64
2022/01/28 10:38:37;;;;;;;13.80;3.00;;;;;;;0.77;100.00;97408.25;10475242;28;20202;-64
2022/01/28 10:43:48;;;;;;;21.10;3.50;;;;;;;0.75;100.00;97420.38;10491616;28;20697;-64
2022/01/28 10:48:57;;;;;;;13.13;2.80;;;;;;;0.82;100.00;97426.88;10492691;28;20609;-63
2022/01/28 10:54:08;;;;;;;17.43;3.27;;;;;;;0.72;100.00;97431.69;10491872;28;20239;-64
2022/01/28 10:59:09;;;;;;;9.17;2.27;;;;;;;0.80;100.00;97439.03;10492557;28;20186;-64
2022/01/28 11:04:11;;;;;;;20.17;3.03;;;;;;;1.07;100.00;97436.78;10474095;28;20223;-63
2022/01/28 11:09:14;;;;;;;21.43;3.03;;;;;;;1.16;100.00;97430.31;10492642;28;20190;-63
2022/01/28 11:14:15;;;;;;;24.50;3.33;;;;;;;1.11;100.00;97452.94;10492612;28;20211;-64
2022/01/28 11:19:18;;;;;;;15.27;2.70;;;;;;;1.11;100.00;97440.88;10500856;28;20201;-63
2022/01/28 11:24:28;;;;;;;21.10;2.97;;;;;;;1.18;100.00;97441.38;10500413;28;20222;-63
2022/01/28 11:29:29;;;;;;;17.40;3.70;;;;;;;1.28;100.00;97444.31;10500746;28;20201;-63
2022/01/28 11:34:31;;;;;;;15.87;3.33;;;;;;;1.25;100.00;97442.72;10498830;28;20253;-63
2022/01/28 11:39:34;;;;;;;17.63;3.13;;;;;;;1.48;100.00;97459.56;10499782;28;20187;-62
2022/01/28 11:44:59;;;;;;;16.73;3.93;;;;;;;1.53;100.00;97462.78;10500247;28;20609;-63
2022/01/28 11:50:21;;;;;;;14.67;3.00;;;;;;;1.48;100.00;97463.91;10497406;28;20207;-63
2022/01/28 11:55:21;;;;;;;15.73;2.80;;;;;;;1.38;100.00;97473.91;10496920;28;20233;-63
2022/01/28 12:00:27;;;;;;;17.40;3.40;;;;;;;1.22;100.00;97481.59;10520036;22;20246;-64
2022/01/28 12:05:30;;;;;;;11.27;2.60;;;;;;;1.25;100.00;97492.59;10498315;28;20379;-64
2022/01/28 12:10:33;;;;;;;13.83;2.90;;;;;;;1.14;100.00;97481.16;10498880;28;20706;-64
2022/01/28 12:16:02;;;;;;;16.87;3.10;;;;;;;1.39;100.00;97483.31;10498772;28;20196;-64
2022/01/28 12:21:12;;;;;;;18.30;2.97;;;;;;;1.24;100.00;97484.91;10497024;28;20292;-65
2022/01/28 12:26:16;;;;;;;17.23;3.30;;;;;;;1.11;100.00;97487.31;10497661;28;20647;-64
2022/01/28 12:31:22;;;;;;;13.00;2.50;;;;;;;1.00;100.00;97485.28;10497735;28;20217;-65
2022/01/28 12:36:33;;;;;;;14.97;2.90;;;;;;;0.93;100.00;97486.50;10498328;28;20237;-65
2022/01/28 12:41:42;;;;;;;18.27;3.43;;;;;;;0.90;100.00;97471.19;10497467;28;20218;-64
2022/01/28 12:46:46;;;;;;;21.17;3.07;;;;;;;1.09;100.00;97478.81;10497988;28;20685;-63
2022/01/28 12:51:46;;;;;;;12.43;3.37;;;;;;;1.06;100.00;97466.91;10477832;28;20565;-63
2022/01/28 12:56:48;;;;;;;20.23;3.60;;;;;;;1.23;100.00;97472.94;10497061;28;20238;-63
2022/01/28 13:01:52;;;;;;;17.30;3.47;;;;;;;1.25;100.00;97463.38;10496800;28;20219;-63
2022/01/28 13:11:55;;;;;;;21.23;3.77;;;;;;;1.09;100.00;97496.03;10496020;28;20657;-63
2022/01/28 13:16:56;;;;;;;13.27;3.50;;;;;;;1.18;100.00;97487.81;10495933;28;20783;-63
2022/01/28 13:21:57;;;;;;;13.30;3.27;;;;;;;1.05;100.00;97493.59;10495989;28;20230;-63
2022/01/28 13:27:01;;;;;;;20.43;3.87;;;;;;;1.16;100.00;97494.81;10494676;28;20693;-63
2022/01/28 13:32:07;;;;;;;20.47;3.50;;;;;;;1.40;100.00;97511.63;10495534;28;20187;-63
2022/01/28 13:37:08;;;;;;;18.33;3.40;;;;;;;1.70;100.00;97513.53;10494340;28;20215;-63
2022/01/28 13:42:12;;;;;;;14.10;3.00;;;;;;;1.72;100.00;97503.94;10495382;28;20219;-62
2022/01/28 13:47:13;;;;;;;20.50;3.40;;;;;;;1.83;100.00;97510.28;10494718;28;20207;-62
2022/01/28 13:52:26;;;;;;;15.77;3.10;;;;;;;1.81;100.00;97519.84;10494489;28;20187;-62
2022/01/28 13:57:28;;;;;;;13.37;3.27;;;;;;;1.53;100.00;97516.13;10493505;28;20227;-63
2022/01/28 14:02:29;;;;;;;14.50;3.20;;;;;;;1.45;100.00;97529.44;10494007;28;20225;-63
2022/01/28 14:07:30;;;;;;;29.17;3.63;;;;;;;1.50;100.00;97548.13;10475501;28;20219;-63
2022/01/28 14:12:46;;;;;;;17.57;3.33;;;;;;;1.27;100.00;97531.22;10493694;28;20309;-63
2022/01/28 14:17:46;;;;;;;16.17;3.50;;;;;;;1.23;100.00;97545.22;10493780;28;20228;-63
2022/01/28 14:22:47;;;;;;;20.07;3.70;;;;;;;1.38;100.00;97551.34;10493426;28;20226;-63
2022/01/28 14:28:01;;;;;;;23.47;3.30;;;;;;;1.50;100.00;97553.31;10492596;28;20214;-63
2022/01/28 14:33:02;;;;;;;20.10;4.60;;;;;;;1.46;100.00;97559.53;10493784;28;20661;-62
2022/01/28 14:38:03;;;;;;;23.47;4.77;;;;;;;1.34;100.00;97575.66;10492979;28;20272;-63
2022/01/28 14:43:04;;;;;;;14.37;3.03;;;;;;;1.24;100.00;97589.03;10493111;28;20210;-63
2022/01/28 14:48:04;;;;;;;22.43;3.67;;;;;;;1.26;100.00;97588.94;10492219;28;20245;-63
2022/01/28 14:53:05;;;;;;;12.73;3.00;;;;;;;1.35;100.00;97591.06;10492600;28;20195;-63
2022/01/28 14:58:06;;;;;;;14.67;3.03;;;;;;;1.47;100.00;97601.66;10477949;28;20250;-62
2022/01/28 15:03:09;;;;;;;22.23;3.30;;;;;;;1.24;100.00;97620.00;10449505;28;20273;-63
2022/01/28 15:08:11;;;;;;;12.63;3.07;;;;;;;1.24;100.00;97627.72;10451143;28;20219;-63
2022/01/28 15:13:11;;;;;;;15.77;2.70;;;;;;;1.25;100.00;97625.97;10450329;28;20208;-61
2022/01/28 15:18:12;;;;;;;19.90;3.03;;;;;;;1.24;100.00;97629.47;10450660;28;20215;-62
2022/01/28 15:23:12;;;;;;;19.20;2.57;;;;;;;1.29;100.00;97642.13;10450537;28;20231;-63
2022/01/28 15:28:18;;;;;;;18.40;3.40;;;;;;;1.19;100.00;97641.75;10450345;28;20282;-63
2022/01/28 15:38:37;;;;;;;22.10;3.17;;;;;;;1.22;100.00;97652.75;10450071;28;20219;-62
2022/01/28 15:43:37;;;;;;;20.17;2.97;;;;;;;1.17;100.00;97671.97;10450508;28;20224;-63
2022/01/28 15:48:37;;;;;;;16.03;3.07;;;;;;;1.27;100.00;97670.59;10491040;28;20263;-62
2022/01/28 15:53:38;;;;;;;17.87;2.80;;;;;;;1.28;100.00;97681.78;10491113;28;20191;-63
2022/01/28 15:58:39;;;;;;;15.87;3.77;;;;;;;1.30;100.00;97691.09;10481302;28;20250;-60
2022/01/28 16:03:39;;;;;;;20.67;3.17;;;;;;;1.23;100.00;97685.41;10479077;28;20572;-63
2022/01/28 16:08:40;;;;;;;14.43;3.10;;;;;;;1.22;100.00;97694.06;10462272;28;20298;-63
2022/01/28 16:18:46;;;;;;;17.60;3.57;;;;;;;1.15;100.00;97713.34;10498897;28;21024;-61
2022/01/28 16:23:47;;;;;;;17.57;3.53;;;;;;;1.14;100.00;97701.34;10497921;28;20230;-61
2022/01/28 16:28:47;;;;;;;15.17;4.07;;;;;;;1.17;100.00;97721.84;10498573;28;20203;-62
2022/01/28 16:33:47;;;;;;;29.20;8.00;;;;;;;1.31;100.00;97725.53;10484485;28;20188;-63
2022/01/28 16:38:50;;;;;;;19.23;4.07;;;;;;;1.17;100.00;97728.75;10454584;28;20302;-61
2022/01/28 16:44:03;;;;;;;14.47;3.30;;;;;;;1.14;100.00;97726.31;10453075;28;20219;-62
2022/01/28 16:49:04;;;;;;;24.17;5.70;;;;;;;0.95;100.00;97728.91;10450276;28;20268;-63
2022/01/28 16:54:05;;;;;;;20.20;4.03;;;;;;;0.94;100.00;97746.16;10452456;28;20722;-62
2022/01/28 16:59:06;;;;;;;22.03;3.20;;;;;;;1.00;100.00;97740.69;10464519;28;20250;-62
2022/01/28 17:04:06;;;;;;;12.87;3.37;;;;;;;0.93;100.00;97746.22;10469172;28;20220;-63
2022/01/28 17:09:07;;;;;;;20.20;3.90;;;;;;;0.78;100.00;97760.66;10471287;28;20222;-63
2022/01/28 17:14:08;;;;;;;20.23;3.10;;;;;;;0.75;100.00;97766.81;10497228;28;20196;-63
2022/01/28 17:19:08;;;;;;;17.67;3.03;;;;;;;0.78;100.00;97763.22;10497838;28;20245;-63
2022/01/28 17:24:08;;;;;;;20.77;3.80;;;;;;;0.85;100.00;97760.28;10497372;28;20231;-62
2022/01/28 17:29:09;;;;;;;21.20;3.87;;;;;;;0.86;100.00;97766.31;10497097;28;20222;-62
2022/01/28 17:34:09;;;;;;;21.13;4.43;;;;;;;0.84;100.00;97768.97;10496912;28;20262;-63
2022/01/28 17:39:11;;;;;;;17.40;3.60;;;;;;;0.85;100.00;97777.53;10494985;28;20214;-62
2022/01/28 17:44:11;;;;;;;21.57;3.23;;;;;;;0.91;100.00;97787.56;10462687;28;20208;-62
2022/01/28 17:49:11;;;;;;;18.80;3.30;;;;;;;0.89;100.00;97785.06;10454621;28;20212;-63
2022/01/28 17:54:12;;;;;;;18.17;5.77;;;;;;;0.85;100.00;97785.25;10453468;28;20211;-63
2022/01/28 17:59:12;;;;;;;20.53;4.80;;;;;;;0.77;100.00;97785.63;10491728;22;20791;-62
2022/01/28 18:04:12;;;;;;;18.90;3.13;;;;;;;0.73;100.00;97799.53;10453611;28;20256;-62
2022/01/28 18:09:13;;;;;;;20.67;3.30;;;;;;;0.69;100.00;97792.88;10461252;28;20751;-63
2022/01/28 18:14:13;;;;;;;20.07;4.47;;;;;;;0.64;100.00;97790.47;10493880;28;20183;-63
2022/01/28 18:19:13;;;;;;;15.57;3.53;;;;;;;0.43;100.00;97794.84;10487447;28;20217;-62
2022/01/28 18:24:14;;;;;;;25.27;3.83;;;;;;;0.47;100.00;97788.63;10493304;28;20578;-61
2022/01/28 18:29:14;;;;;;;22.10;3.53;;;;;;;0.48;100.00;97797.22;10483245;28;20308;-62
2022/01/28 18:34:15;;;;;;;24.50;3.63;;;;;;;0.49;100.00;97801.44;10454342;28;20180;-60
2022/01/28 18:39:15;;;;;;;21.77;3.83;;;;;;;0.38;100.00;97799.34;10456929;28;20214;-62
2022/01/28 18:44:18;;;;;;;18.87;4.03;;;;;;;0.39;100.00;97795.88;10456251;28;20230;-63
2022/01/28 18:49:22;;;;;;;21.13;3.80;;;;;;;0.38;100.00;97798.50;10456617;28;20222;-60
2022/01/28 18:54:23;;;;;;;17.33;3.53;;;;;;;0.38;100.00;97803.66;10451584;28;20189;-62
2022/01/28 18:59:23;;;;;;;15.47;4.10;;;;;;;0.33;100.00;97799.53;10477556;28;20242;-63
2022/01/28 19:04:25;;;;;;;18.37;3.60;;;;;;;0.31;100.00;97803.94;10486053;28;20279;-59
2022/01/28 19:09:25;;;;;;;23.10;4.57;;;;;;;0.20;100.00;97801.00;10492414;28;20211;-62
2022/01/28 19:14:25;;;;;;;25.77;4.67;;;;;;;0.21;100.00;97810.38;10464723;28;20262;-61
2022/01/28 19:19:26;;;;;;;52.87;15.30;;;;;;;0.24;100.00;97823.13;10451247;28;20233;-62
2022/01/28 19:24:26;;;;;;;38.77;11.20;;;;;;;0.22;100.00;97814.63;10467983;28;20725;-62
2022/01/28 19:29:26;;;;;;;10.30;4.27;;;;;;;0.27;100.00;97819.59;10470248;28;20207;-62
2022/01/28 19:34:27;;;;;;;17.93;3.13;;;;;;;0.19;100.00;97814.75;10461790;28;20192;-62
2022/01/28 19:39:27;;;;;;;14.77;3.73;;;;;;;0.24;100.00;97817.16;10484629;28;20268;-61
2022/01/28 19:44:28;;;;;;;25.37;3.73;;;;;;;0.23;100.00;97818.03;10465405;28;20223;-62
2022/01/28 19:49:31;;;;;;;22.67;3.57;;;;;;;0.28;100.00;97809.22;10462889;28;20204;-62
2022/01/28 19:54:32;;;;;;;20.67;3.30;;;;;;;0.32;100.00;97809.91;10465404;28;20190;-62
2022/01/28 19:59:32;;;;;;;13.47;4.33;;;;;;;0.28;100.00;97808.41;10500053;28;20234;-61
2022/01/28 20:04:32;;;;;;;28.27;4.90;;;;;;;0.25;100.00;97819.66;10476209;28;20226;-60
2022/01/28 20:09:33;;;;;;;26.77;5.13;;;;;;;0.25;100.00;97822.25;10499806;28;20242;-61
2022/01/28 20:14:33;;;;;;;13.83;3.43;;;;;;;0.29;100.00;97828.94;10504972;28;20204;-62
2022/01/28 20:19:34;;;;;;;18.83;4.23;;;;;;;0.28;100.00;97824.69;10497873;28;20238;-61
2022/01/28 20:24:34;;;;;;;29.50;5.30;;;;;;;0.21;100.00;97838.72;10484914;28;20253;-60
2022/01/28 20:29:35;;;;;;;22.40;4.10;;;;;;;0.29;100.00;97841.84;10458505;28;20215;-62
2022/01/28 20:34:36;;;;;;;15.67;3.47;;;;;;;0.25;100.00;97831.72;10465260;28;20266;-61
2022/01/28 20:39:36;;;;;;;32.40;4.20;;;;;;;0.28;100.00;97837.56;10459387;28;20223;-62
2022/01/28 20:44:37;;;;;;;26.07;4.37;;;;;;;0.33;100.00;97845.09;10456792;28;20647;-60
2022/01/28 20:49:37;;;;;;;12.93;3.70;;;;;;;0.44;100.00;97857.53;10456426;28;20218;-61
2022/01/28 20:54:38;;;;;;;17.07;3.90;;;;;;;0.43;100.00;97854.13;10456625;28;20559;-62
2022/01/28 20:59:38;;;;;;;25.23;3.83;;;;;;;0.40;100.00;97850.81;10466701;28;20588;-61
2022/01/28 21:04:39;;;;;;;16.73;3.53;;;;;;;0.46;100.00;97846.28;10497164;28;21978;-62
2022/01/28 21:09:39;;;;;;;26.90;4.23;;;;;;;0.40;100.00;97849.09;10485221;28;20693;-61
2022/01/28 21:14:39;;;;;;;22.03;3.83;;;;;;;0.34;100.00;97839.88;10493474;28;20237;-63
2022/01/28 21:19:40;;;;;;;19.53;3.30;;;;;;;0.34;100.00;97839.06;10493508;28;20217;-63
2022/01/28 21:24:41;;;;;;;23.87;4.13;;;;;;;0.25;100.00;97842.84;10496461;28;20276;-62
2022/01/28 21:29:41;;;;;;;16.27;3.63;;;;;;;0.33;100.00;97847.69;10496063;28;20223;-63
2022/01/28 21:34:41;;;;;;;18.37;2.90;;;;;;;0.44;100.00;97849.81;10496443;28;20534;-62
2022/01/28 21:39:43;;;;;;;17.67;3.63;;;;;;;0.47;100.00;97847.91;10495935;28;20219;-62
2022/01/28 21:44:43;;;;;;;23.67;4.13;;;;;;;0.49;100.00;97846.13;10495502;28;20305;-62
2022/01/28 21:49:43;;;;;;;19.03;3.90;;;;;;;0.55;100.00;97846.75;10495489;28;20295;-62
2022/01/28 21:54:44;;;;;;;18.13;3.40;;;;;;;0.58;100.00;97857.78;10490794;28;20252;-63
2022/01/28 21:59:45;;;;;;;18.73;3.67;;;;;;;0.52;100.00;97852.88;10491881;28;20238;-62
2022/01/28 22:04:48;;;;;;;21.17;3.73;;;;;;;0.43;100.00;97848.97;10494528;28;20229;-63
2022/01/28 22:09:49;;;;;;;22.57;4.10;;;;;;;0.46;100.00;97850.56;10494443;28;20214;-63
2022/01/28 22:14:49;;;;;;;19.73;3.70;;;;;;;0.53;100.00;97855.41;10494030;28;20764;-63
2022/01/28 22:19:49;;;;;;;36.50;5.50;;;;;;;0.57;100.00;97850.09;10494728;28;20583;-61
2022/01/28 22:24:50;;;;;;;21.07;3.63;;;;;;;0.58;100.00;97862.94;10494413;28;20568;-58
2022/01/28 22:29:50;;;;;;;21.43;4.30;;;;;;;0.44;100.00;97857.53;10494873;28;20654;-62
2022/01/28 22:34:51;;;;;;;27.03;4.03;;;;;;;0.43;100.00;97845.53;10495666;28;20202;-60
2022/01/28 22:39:51;;;;;;;20.73;4.20;;;;;;;0.48;100.00;97841.03;10493575;28;20222;-59
2022/01/28 22:44:51;;;;;;;31.07;3.87;;;;;;;0.60;100.00;97826.75;10493618;28;20298;-59
2022/01/28 22:49:52;;;;;;;28.80;3.70;;;;;;;0.49;100.00;97819.50;10493599;28;20272;-62
2022/01/28 22:54:52;;;;;;;22.40;4.17;;;;;;;0.36;100.00;97819.19;10493527;28;20194;-58
2022/01/28 22:59:53;;;;;;;17.87;3.93;;;;;;;0.46;100.00;97806.75;10505866;28;20322;-62
2022/01/28 23:04:54;;;;;;;32.00;4.60;;;;;;;0.40;100.00;97800.13;10533733;28;20607;-62
2022/01/28 23:09:54;;;;;;;22.93;4.50;;;;;;;0.33;100.00;97789.22;10534086;28;20297;-62
2022/01/28 23:14:54;;;;;;;15.00;3.20;;;;;;;0.26;100.00;97794.72;10533565;28;20170;-63
2022/01/28 23:19:55;;;;;;;23.13;3.43;;;;;;;0.25;100.00;97799.03;10533431;28;20207;-63
2022/01/28 23:24:56;;;;;;;16.37;3.67;;;;;;;0.21;100.00;97794.91;10534928;28;20291;-63
2022/01/28 23:29:56;;;;;;;18.17;3.80;;;;;;;0.07;100.00;97784.38;10534778;28;20206;-63
2022/01/28 23:34:57;;;;;;;19.20;3.60;;;;;;;-0.02;100.00;97778.69;10535101;28;20182;-63
2022/01/28 23:40:01;;;;;;;30.33;3.93;;;;;;;-0.16;100.00;97770.69;10534691;28;20210;-63
2022/01/28 23:45:03;;;;;;;21.10;3.67;;;;;;;-0.23;100.00;97762.41;10534792;28;20293;-60
2022/01/28 23:50:04;;;;;;;24.67;4.37;;;;;;;-0.32;100.00;97755.06;10534761;28;20249;-63
2022/01/28 23:55:05;;;;;;;15.23;3.53;;;;;;;-0.38;100.00;97745.84;10534370;28;20182;-63
